createdAt,value
2018-02-08T00:01:18.961Z,18.13
2018-02-08T00:03:46.473Z,15.97
2018-02-08T00:06:14.174Z,16.90
2018-02-08T00:08:41.706Z,17.63
2018-02-08T00:11:09.238Z,16.83
2018-02-08T00:13:37.470Z,18.37
2018-02-08T00:16:04.991Z,15.53
2018-02-08T00:18:33.253Z,16.93
2018-02-08T00:21:02.222Z,17.67
2018-02-08T00:23:29.696Z,16.00
2018-02-08T00:25:57.267Z,16.30
2018-02-08T00:28:25.487Z,17.60
2018-02-08T00:30:52.965Z,16.57
2018-02-08T00:33:20.454Z,16.00
2018-02-08T00:35:49.789Z,17.17
2018-02-08T00:38:17.247Z,18.87
2018-02-08T00:40:45.790Z,17.40
2018-02-08T00:43:14.030Z,16.40
2018-02-08T00:45:41.514Z,16.50
2018-02-08T00:48:09.766Z,16.40
2018-02-08T00:50:37.396Z,18.10
2018-02-08T00:53:04.878Z,18.60
2018-02-08T00:55:32.454Z,16.90
2018-02-08T00:58:01.130Z,18.90
2018-02-08T01:00:28.582Z,17.37
2018-02-08T01:02:56.074Z,18.57
2018-02-08T01:05:23.593Z,17.60
2018-02-08T01:07:51.055Z,17.63
2018-02-08T01:10:18.659Z,16.50
2018-02-08T01:12:46.894Z,20.33
2018-02-08T01:15:14.361Z,19.03
2018-02-08T01:17:41.967Z,19.30
2018-02-08T01:20:09.414Z,19.60
2018-02-08T01:22:36.878Z,19.63
2018-02-08T01:25:05.465Z,18.60
2018-02-08T01:27:32.922Z,20.83
2018-02-08T01:30:00.398Z,19.43
2018-02-08T01:32:27.877Z,19.33
2018-02-08T01:34:56.515Z,18.83
2018-02-08T01:37:23.986Z,19.30
2018-02-08T01:39:51.482Z,18.83
2018-02-08T01:42:18.969Z,20.40
2018-02-08T01:44:47.308Z,21.20
2018-02-08T01:47:14.786Z,18.30
2018-02-08T01:49:45.818Z,20.67
2018-02-08T01:52:13.390Z,17.80
2018-02-08T01:54:48.784Z,21.23
2018-02-08T01:57:16.574Z,19.43
2018-02-08T01:59:44.169Z,21.20
2018-02-08T02:02:12.415Z,21.53
2018-02-08T02:04:39.888Z,18.90
2018-02-08T02:07:08.152Z,20.00
2018-02-08T02:09:35.626Z,18.63
2018-02-08T02:12:03.866Z,19.57
2018-02-08T02:14:31.358Z,20.43
2018-02-08T02:16:59.785Z,20.10
2018-02-08T02:19:27.247Z,19.97
2018-02-08T02:21:54.729Z,20.60
2018-02-08T02:24:22.222Z,20.30
2018-02-08T02:26:49.721Z,19.70
2018-02-08T02:29:17.246Z,19.90
2018-02-08T02:31:44.746Z,20.00
2018-02-08T02:34:12.239Z,20.00
2018-02-08T02:36:40.499Z,21.40
2018-02-08T02:39:07.975Z,20.60
2018-02-08T02:41:36.268Z,20.90
2018-02-08T02:44:04.451Z,21.63
2018-02-08T02:46:31.953Z,20.80
2018-02-08T02:48:59.438Z,21.10
2018-02-08T02:51:27.703Z,19.57
2018-02-08T02:53:56.020Z,20.30
2018-02-08T02:56:23.494Z,20.13
2018-02-08T02:58:50.979Z,20.17
2018-02-08T03:01:18.507Z,21.03
2018-02-08T03:03:45.963Z,22.50
2018-02-08T03:06:13.430Z,22.37
2018-02-08T03:08:40.909Z,20.20
2018-02-08T03:11:08.426Z,20.63
2018-02-08T03:13:35.894Z,22.20
2018-02-08T03:16:03.381Z,22.70
2018-02-08T03:18:30.854Z,21.20
2018-02-08T03:20:59.122Z,20.87
2018-02-08T03:23:26.654Z,20.70
2018-02-08T03:25:54.172Z,20.60
2018-02-08T03:28:22.386Z,21.23
2018-02-08T03:31:06.863Z,22.00
2018-02-08T03:33:34.379Z,22.60
2018-02-08T03:36:01.831Z,19.10
2018-02-08T03:38:29.357Z,22.07
2018-02-08T03:40:57.628Z,21.10
2018-02-08T03:43:26.622Z,22.73
2018-02-08T03:45:54.882Z,22.90
2018-02-08T03:48:23.722Z,22.37
2018-02-08T03:50:51.187Z,23.33
2018-02-08T03:53:19.538Z,24.97
2018-02-08T03:55:47.019Z,21.90
2018-02-08T03:58:14.549Z,23.17
2018-02-08T04:00:42.848Z,23.47
2018-02-08T04:03:10.374Z,22.93
2018-02-08T04:05:38.604Z,22.70
2018-02-08T04:08:06.214Z,22.97
2018-02-08T04:10:34.485Z,21.57
2018-02-08T04:13:02.709Z,21.90
2018-02-08T04:15:30.206Z,24.23
2018-02-08T04:17:58.445Z,23.33
2018-02-08T04:20:25.930Z,22.23
2018-02-08T04:22:53.476Z,21.73
2018-02-08T04:25:20.925Z,22.60
2018-02-08T04:27:48.407Z,23.10
2018-02-08T04:30:17.406Z,23.23
2018-02-08T04:32:44.866Z,25.43
2018-02-08T04:35:13.126Z,24.17
2018-02-08T04:37:40.618Z,23.90
2018-02-08T04:40:32.743Z,23.77
2018-02-08T04:43:12.910Z,24.50
2018-02-08T04:45:52.576Z,24.70
2018-02-08T04:48:20.128Z,22.80
2018-02-08T04:50:47.633Z,23.00
2018-02-08T04:53:15.162Z,23.70
2018-02-08T04:55:42.683Z,25.60
2018-02-08T04:58:10.927Z,24.60
2018-02-08T05:00:38.422Z,24.60
2018-02-08T05:03:06.004Z,25.20
2018-02-08T05:05:33.462Z,23.50
2018-02-08T05:08:00.957Z,25.93
2018-02-08T05:10:28.437Z,26.50
2018-02-08T05:12:57.323Z,24.00
2018-02-08T05:15:25.589Z,25.43
2018-02-08T05:17:54.246Z,24.13
2018-02-08T05:20:21.709Z,24.53
2018-02-08T05:22:50.639Z,26.30
2018-02-08T05:25:18.139Z,26.23
2018-02-08T05:27:45.862Z,25.57
2018-02-08T05:30:14.203Z,25.50
2018-02-08T05:32:41.667Z,25.83
2018-02-08T05:35:09.135Z,24.37
2018-02-08T05:37:37.422Z,24.77
2018-02-08T05:40:04.935Z,25.53
2018-02-08T05:42:32.454Z,25.30
2018-02-08T05:45:00.530Z,24.90
2018-02-08T05:47:28.026Z,24.33
2018-02-08T05:49:55.538Z,24.43
2018-02-08T05:52:23.039Z,24.60
2018-02-08T05:54:50.522Z,25.90
2018-02-08T05:57:17.989Z,25.17
2018-02-08T05:59:46.330Z,24.43
2018-02-08T06:02:13.793Z,24.77
2018-02-08T06:04:41.261Z,24.93
2018-02-08T06:07:08.746Z,25.27
2018-02-08T06:09:37.877Z,25.13
2018-02-08T06:12:05.339Z,27.67
2018-02-08T06:14:32.846Z,25.60
2018-02-08T06:17:01.109Z,26.67
2018-02-08T06:19:28.586Z,25.80
2018-02-08T06:21:56.875Z,24.00
2018-02-08T06:24:24.335Z,25.20
2018-02-08T06:26:51.826Z,23.97
2018-02-08T06:29:19.409Z,24.20
2018-02-08T06:31:46.869Z,25.17
2018-02-08T06:34:14.364Z,26.33
2018-02-08T06:36:41.851Z,22.67
2018-02-08T06:39:09.344Z,25.90
2018-02-08T06:41:36.847Z,25.10
2018-02-08T06:44:04.358Z,26.30
2018-02-08T06:46:32.632Z,27.27
2018-02-08T06:49:00.094Z,24.10
2018-02-08T06:51:27.577Z,24.67
2018-02-08T06:53:55.046Z,27.37
2018-02-08T06:56:22.531Z,25.03
2018-02-08T06:58:50.063Z,23.40
2018-02-08T07:01:18.289Z,25.17
2018-02-08T07:03:45.773Z,26.30
2018-02-08T07:06:14.019Z,25.00
2018-02-08T07:08:41.528Z,24.90
2018-02-08T07:11:08.998Z,24.40
2018-02-08T07:13:36.513Z,24.37
2018-02-08T07:16:04.791Z,24.30
2018-02-08T07:18:33.023Z,24.87
2018-02-08T07:21:00.506Z,25.73
2018-02-08T07:23:27.974Z,25.70
2018-02-08T07:25:56.573Z,24.13
2018-02-08T07:28:24.827Z,27.63
2018-02-08T07:30:52.302Z,25.40
2018-02-08T07:33:20.557Z,26.73
2018-02-08T07:35:48.066Z,23.73
2018-02-08T07:38:15.551Z,25.87
2018-02-08T07:40:43.132Z,25.50
2018-02-08T07:43:12.230Z,24.40
2018-02-08T07:45:39.701Z,23.77
2018-02-08T07:48:07.958Z,23.23
2018-02-08T07:50:35.460Z,24.67
2018-02-08T07:53:02.966Z,23.70
2018-02-08T07:55:30.444Z,25.00
2018-02-08T07:57:58.702Z,24.30
2018-02-08T08:00:26.163Z,23.60
2018-02-08T08:02:53.642Z,23.20
2018-02-08T08:05:21.987Z,22.70
2018-02-08T08:07:49.452Z,21.27
2018-02-08T08:10:17.018Z,25.23
2018-02-08T08:12:45.275Z,23.97
2018-02-08T08:15:12.742Z,23.17
2018-02-08T08:17:40.230Z,22.60
2018-02-08T08:20:08.605Z,22.53
2018-02-08T08:22:36.065Z,22.83
2018-02-08T08:25:03.556Z,22.70
2018-02-08T08:27:31.030Z,23.00
2018-02-08T08:29:59.039Z,22.20
2018-02-08T08:32:27.249Z,23.97
2018-02-08T08:34:54.744Z,21.40
2018-02-08T08:37:22.976Z,24.97
2018-02-08T08:39:50.442Z,23.60
2018-02-08T08:42:17.929Z,22.10
2018-02-08T08:44:45.549Z,23.70
2018-02-08T08:47:13.149Z,23.50
2018-02-08T08:49:40.673Z,24.27
2018-02-08T08:52:08.152Z,24.20
2018-02-08T08:54:35.606Z,24.97
2018-02-08T08:57:03.093Z,25.17
2018-02-08T08:59:31.356Z,24.50
2018-02-08T09:01:58.838Z,25.07
2018-02-08T09:04:27.087Z,23.03
2018-02-08T09:06:54.546Z,25.83
2018-02-08T09:09:22.009Z,22.90
2018-02-08T09:11:50.265Z,25.53
2018-02-08T09:14:17.807Z,23.43
2018-02-08T09:16:45.278Z,22.67
2018-02-08T09:19:12.863Z,23.77
2018-02-08T09:21:40.339Z,23.47
2018-02-08T09:24:08.033Z,25.07
2018-02-08T09:26:35.506Z,25.47
2018-02-08T09:29:02.976Z,23.60
2018-02-08T09:31:30.442Z,24.10
2018-02-08T09:33:59.258Z,23.30
2018-02-08T09:36:27.545Z,23.93
2018-02-08T09:38:54.979Z,25.57
2018-02-08T09:41:23.236Z,24.63
2018-02-08T09:43:50.702Z,23.50
2018-02-08T09:46:19.674Z,23.50
2018-02-08T09:48:47.962Z,23.57
2018-02-08T09:51:15.425Z,22.23
2018-02-08T09:53:43.707Z,23.90
2018-02-08T09:56:12.987Z,24.00
2018-02-08T09:58:40.452Z,23.77
2018-02-08T10:01:08.325Z,25.40
2018-02-08T10:03:37.418Z,24.70
2018-02-08T10:06:06.389Z,24.07
2018-02-08T10:08:33.867Z,23.87
2018-02-08T10:11:02.139Z,22.50
2018-02-08T10:13:29.708Z,22.83
2018-02-08T10:15:58.662Z,23.03
2018-02-08T10:18:26.139Z,22.90
2018-02-08T10:20:56.043Z,24.23
2018-02-08T10:23:23.510Z,23.37
2018-02-08T10:25:50.982Z,22.40
2018-02-08T10:28:18.471Z,22.57
2018-02-08T10:30:45.948Z,23.83
2018-02-08T10:33:13.439Z,24.63
2018-02-08T10:35:40.890Z,25.20
2018-02-08T10:38:08.354Z,24.20
2018-02-08T10:40:37.213Z,22.43
2018-02-08T10:43:04.685Z,23.10
2018-02-08T10:45:32.171Z,23.77
2018-02-08T10:48:00.365Z,21.67
2018-02-08T10:50:27.855Z,22.10
2018-02-08T10:52:55.354Z,20.73
2018-02-08T10:55:22.833Z,21.40
2018-02-08T10:57:51.077Z,21.40
2018-02-08T11:00:19.027Z,21.20
2018-02-08T11:02:47.013Z,21.60
2018-02-08T11:05:15.243Z,22.67
2018-02-08T11:07:42.697Z,20.13
2018-02-08T11:10:10.180Z,21.30
2018-02-08T11:12:37.638Z,20.90
2018-02-08T11:15:05.118Z,20.00
2018-02-08T11:17:34.126Z,20.07
2018-02-08T11:20:01.587Z,20.23
2018-02-08T11:22:29.811Z,20.23
2018-02-08T11:24:57.291Z,20.77
2018-02-08T11:27:24.746Z,20.73
2018-02-08T11:29:52.829Z,20.70
2018-02-08T11:32:20.302Z,19.87
2018-02-08T11:34:48.526Z,20.10
2018-02-08T11:37:16.017Z,18.77
2018-02-08T11:39:45.007Z,19.57
2018-02-08T11:42:12.495Z,19.30
2018-02-08T11:44:40.798Z,18.33
2018-02-08T11:47:08.258Z,19.80
2018-02-08T11:49:35.722Z,19.53
2018-02-08T11:52:03.223Z,20.63
2018-02-08T11:54:30.699Z,20.10
2018-02-08T11:56:58.934Z,20.80
2018-02-08T11:59:26.394Z,19.20
2018-02-08T12:01:53.870Z,18.37
2018-02-08T12:04:21.419Z,20.40
2018-02-08T12:06:48.882Z,20.30
2018-02-08T12:09:16.352Z,19.13
2018-02-08T12:11:44.588Z,21.27
2018-02-08T12:14:12.097Z,18.73
2018-02-08T12:16:40.426Z,19.13
2018-02-08T12:19:07.884Z,17.80
2018-02-08T12:21:35.361Z,17.70
2018-02-08T12:24:02.847Z,16.87
2018-02-08T12:26:31.071Z,19.20
2018-02-08T12:28:59.530Z,19.13
2018-02-08T12:31:27.039Z,19.00
2018-02-08T12:33:55.014Z,18.13
2018-02-08T12:36:23.242Z,18.30
2018-02-08T12:38:50.726Z,18.73
2018-02-08T12:41:18.309Z,20.97
2018-02-08T12:43:46.545Z,21.80
2018-02-08T12:46:14.127Z,18.70
2018-02-08T12:48:41.574Z,20.07
2018-02-08T12:51:09.037Z,20.73
2018-02-08T12:53:36.513Z,19.87
2018-02-08T12:56:04.773Z,20.50
2018-02-08T12:58:32.205Z,19.37
2018-02-08T13:00:59.778Z,20.00
2018-02-08T13:03:27.230Z,21.10
2018-02-08T13:05:54.720Z,19.20
2018-02-08T13:08:22.818Z,18.90
2018-02-08T13:10:50.378Z,19.87
2018-02-08T13:13:17.848Z,19.63
2018-02-08T13:15:45.610Z,20.33
2018-02-08T13:18:14.063Z,20.53
2018-02-08T13:20:41.522Z,19.30
2018-02-08T13:23:09.007Z,18.43
2018-02-08T13:25:36.485Z,18.03
2018-02-08T13:28:03.962Z,17.97
2018-02-08T13:30:31.505Z,17.70
2018-02-08T13:32:58.986Z,17.60
2018-02-08T13:35:27.213Z,16.27
2018-02-08T13:37:54.695Z,15.93
2018-02-08T13:40:32.055Z,15.97
2018-02-08T13:42:59.538Z,14.43
2018-02-08T13:45:28.807Z,15.43
2018-02-08T13:48:14.962Z,14.40
2018-02-08T13:51:00.951Z,16.60
2018-02-08T13:53:34.019Z,14.43
2018-02-08T13:56:11.383Z,14.20
2018-02-08T13:58:42.857Z,14.73
2018-02-08T14:01:10.322Z,13.13
2018-02-08T14:03:37.777Z,12.17
2018-02-08T14:06:05.264Z,11.50
2018-02-08T14:08:32.718Z,7.37
2018-02-08T14:11:00.941Z,6.53
2018-02-08T14:13:28.431Z,5.87
2018-02-08T14:15:55.992Z,7.50
2018-02-08T14:18:24.110Z,6.90
2018-02-08T14:20:51.578Z,7.43
2018-02-08T14:23:19.426Z,8.50
2018-02-08T14:25:46.896Z,7.63
2018-02-08T14:28:14.488Z,7.43
2018-02-08T14:30:41.899Z,7.27
2018-02-08T14:33:09.363Z,7.17
2018-02-08T14:35:36.975Z,6.30
2018-02-08T14:38:05.193Z,6.60
2018-02-08T14:40:32.669Z,5.97
2018-02-08T14:43:00.246Z,5.70
2018-02-08T14:45:28.473Z,7.03
2018-02-08T14:47:56.263Z,6.53
2018-02-08T14:50:23.750Z,7.57
2018-02-08T14:52:51.202Z,5.73
2018-02-08T14:55:19.217Z,6.23
2018-02-08T14:57:48.457Z,6.07
2018-02-08T15:00:15.909Z,7.10
2018-02-08T15:02:43.371Z,6.70
2018-02-08T15:05:10.873Z,6.50
2018-02-08T15:07:39.115Z,7.07
2018-02-08T15:10:06.616Z,6.90
2018-02-08T15:12:34.230Z,6.63
2018-02-08T15:15:02.501Z,5.83
2018-02-08T15:17:29.951Z,6.10
2018-02-08T15:19:57.818Z,5.70
2018-02-08T15:22:26.300Z,6.30
2018-02-08T15:24:54.234Z,6.63
2018-02-08T15:27:22.039Z,5.97
2018-02-08T15:29:49.536Z,6.27
2018-02-08T15:32:17.519Z,5.80
2018-02-08T15:34:45.030Z,5.67
2018-02-08T15:37:12.522Z,5.87
2018-02-08T15:39:40.121Z,6.10
2018-02-08T15:42:07.622Z,5.93
2018-02-08T15:44:35.865Z,6.10
2018-02-08T15:47:04.227Z,6.50
2018-02-08T15:49:31.707Z,5.60
2018-02-08T15:51:59.194Z,6.10
2018-02-08T15:54:27.918Z,7.20
2018-02-08T15:56:55.511Z,6.97
2018-02-08T15:59:22.978Z,7.73
2018-02-08T16:01:50.425Z,6.87
2018-02-08T16:04:18.695Z,6.17
2018-02-08T16:06:46.149Z,6.20
2018-02-08T16:09:13.603Z,5.43
2018-02-08T16:11:41.078Z,5.63
2018-02-08T16:14:08.534Z,6.50
2018-02-08T16:16:36.834Z,6.83
2018-02-08T16:19:05.196Z,6.80
2018-02-08T16:21:32.654Z,7.40
2018-02-08T16:24:00.114Z,7.37
2018-02-08T16:26:28.386Z,6.87
2018-02-08T16:28:55.856Z,7.60
2018-02-08T16:31:24.074Z,6.80
2018-02-08T16:33:51.795Z,8.90
2018-02-08T16:36:20.070Z,7.07
2018-02-08T16:38:47.562Z,8.20
2018-02-08T16:41:15.075Z,7.57
2018-02-08T16:43:42.526Z,8.77
2018-02-08T16:46:09.994Z,9.30
2018-02-08T16:48:38.240Z,9.40
2018-02-08T16:51:05.702Z,8.70
2018-02-08T16:53:33.982Z,9.10
2018-02-08T16:56:03.019Z,8.93
2018-02-08T16:58:31.400Z,8.90
2018-02-08T17:00:58.861Z,12.30
2018-02-08T17:03:26.348Z,9.60
2018-02-08T17:05:53.923Z,9.73
2018-02-08T17:08:22.904Z,9.63
2018-02-08T17:10:50.390Z,10.50
2018-02-08T17:13:19.714Z,12.23
2018-02-08T17:15:47.444Z,10.07
2018-02-08T17:18:15.778Z,11.40
2018-02-08T17:20:43.282Z,12.77
2018-02-08T17:23:11.123Z,11.43
2018-02-08T17:25:38.650Z,10.40
2018-02-08T17:28:06.162Z,11.07
2018-02-08T17:30:34.731Z,11.77
2018-02-08T17:35:37.056Z,11.80
2018-02-08T17:38:05.291Z,12.67
2018-02-08T17:40:32.935Z,11.67
2018-02-08T17:43:00.413Z,13.07
2018-02-08T17:45:27.947Z,12.60
2018-02-08T17:47:56.588Z,10.47
2018-02-08T17:50:24.572Z,12.27
2018-02-08T17:52:52.956Z,11.50
2018-02-08T17:55:20.413Z,12.63
2018-02-08T17:57:47.931Z,11.93
2018-02-08T18:00:16.903Z,12.63
2018-02-08T18:02:44.787Z,13.80
2018-02-08T18:05:12.267Z,13.97
2018-02-08T18:07:39.794Z,13.40
2018-02-08T18:10:08.976Z,13.60
2018-02-08T18:12:36.445Z,14.60
2018-02-08T18:15:04.679Z,13.43
2018-02-08T18:17:32.142Z,12.67
2018-02-08T18:19:59.630Z,14.70
2018-02-08T18:22:27.202Z,15.67
2018-02-08T18:24:56.175Z,15.33
2018-02-08T18:27:23.687Z,15.90
2018-02-08T18:29:51.214Z,15.23
2018-02-08T18:32:18.679Z,16.03
2018-02-08T18:34:46.937Z,14.90
2018-02-08T18:37:15.273Z,13.83
2018-02-08T18:39:42.730Z,14.80
2018-02-08T18:42:10.346Z,14.80
2018-02-08T18:44:38.566Z,15.60
2018-02-08T18:47:07.014Z,15.90
2018-02-08T18:49:35.274Z,16.00
2018-02-08T18:52:03.542Z,17.30
2018-02-08T18:54:31.775Z,16.30
2018-02-08T18:56:59.282Z,17.30
2018-02-08T18:59:27.535Z,16.50
2018-02-08T19:01:56.802Z,17.80
2018-02-08T19:04:24.302Z,20.60
2018-02-08T19:06:51.769Z,20.30
2018-02-08T19:09:21.346Z,20.50
2018-02-08T19:11:48.860Z,21.67
2018-02-08T19:14:16.328Z,25.40
2018-02-08T19:16:43.806Z,22.70
2018-02-08T19:19:11.317Z,24.83
2018-02-08T19:21:39.771Z,24.90
2018-02-08T19:24:09.039Z,25.47
2018-02-08T19:26:36.584Z,26.97
2018-02-08T19:29:04.814Z,28.60
2018-02-08T19:31:32.309Z,27.07
2018-02-08T19:33:59.810Z,26.60
2018-02-08T19:36:27.370Z,26.70
2018-02-08T19:38:54.846Z,28.77
2018-02-08T19:41:22.400Z,26.50
2018-02-08T19:43:50.741Z,24.63
2018-02-08T19:46:20.277Z,25.40
2018-02-08T19:48:47.783Z,26.17
2018-02-08T19:51:16.228Z,27.17
2018-02-08T19:53:43.724Z,29.50
2018-02-08T19:56:11.821Z,25.20
2018-02-08T19:58:39.465Z,26.33
2018-02-08T20:01:08.328Z,26.90
2018-02-08T20:03:35.862Z,25.73
2018-02-08T20:06:03.532Z,27.47
2018-02-08T20:08:31.079Z,25.53
2018-02-08T20:10:59.009Z,25.70
2018-02-08T20:13:27.172Z,28.20
2018-02-08T20:15:54.766Z,25.60
2018-02-08T20:18:23.278Z,27.77
2018-02-08T20:20:51.520Z,21.40
2018-02-08T20:23:18.974Z,24.97
2018-02-08T20:25:46.486Z,24.73
2018-02-08T20:28:13.994Z,27.60
2018-02-08T20:30:42.242Z,28.27
2018-02-08T20:33:09.773Z,25.80
2018-02-08T20:35:37.283Z,25.43
2018-02-08T20:38:04.778Z,26.70
2018-02-08T20:40:33.072Z,26.80
2018-02-08T20:43:06.292Z,26.93
2018-02-08T20:45:33.942Z,27.43
2018-02-08T20:48:01.474Z,25.80
2018-02-08T20:50:29.065Z,27.43
2018-02-08T20:52:56.834Z,29.33
2018-02-08T20:55:25.035Z,27.57
2018-02-08T20:57:52.517Z,27.13
2018-02-08T21:00:20.057Z,29.23
2018-02-08T21:02:47.603Z,27.90
2018-02-08T21:05:15.718Z,30.80
2018-02-08T21:07:44.432Z,29.67
2018-02-08T21:10:13.021Z,32.83
2018-02-08T21:12:41.126Z,30.30
2018-02-08T21:15:08.881Z,27.10
2018-02-08T21:17:37.191Z,30.17
2018-02-08T21:20:04.698Z,31.30
2018-02-08T21:22:34.040Z,30.70
2018-02-08T21:25:05.623Z,28.67
2018-02-08T21:27:34.794Z,31.07
2018-02-08T21:30:03.141Z,29.83
2018-02-08T21:32:31.582Z,30.77
2018-02-08T21:34:59.722Z,29.63
2018-02-08T21:37:29.067Z,30.73
2018-02-08T21:39:56.657Z,32.20
2018-02-08T21:42:24.115Z,31.07
2018-02-08T21:44:51.690Z,30.70
2018-02-08T21:47:19.397Z,30.93
2018-02-08T21:49:47.179Z,33.17
2018-02-08T21:52:14.792Z,31.40
2018-02-08T21:54:43.049Z,28.87
2018-02-08T21:57:10.542Z,29.07
2018-02-08T21:59:38.075Z,32.77
2018-02-08T22:02:06.338Z,31.43
2018-02-08T22:04:34.594Z,29.60
2018-02-08T22:07:02.398Z,30.60
2018-02-08T22:09:29.887Z,29.37
2018-02-08T22:11:57.392Z,31.90
2018-02-08T22:14:25.671Z,30.40
2018-02-08T22:16:53.168Z,29.30
2018-02-08T22:19:21.176Z,29.77
2018-02-08T22:21:48.746Z,30.80
2018-02-08T22:24:16.309Z,30.10
2018-02-08T22:26:44.563Z,31.13
2018-02-08T22:29:12.070Z,29.23
2018-02-08T22:31:40.358Z,31.20
2018-02-08T22:34:07.962Z,28.57
2018-02-08T22:36:35.438Z,29.90
2018-02-08T22:39:02.954Z,29.83
2018-02-08T22:41:30.446Z,28.67
2018-02-08T22:43:58.797Z,28.60
2018-02-08T22:46:26.282Z,28.33
2018-02-08T22:48:53.763Z,26.70
2018-02-08T22:51:22.090Z,29.80
2018-02-08T22:53:49.608Z,26.07
2018-02-08T22:56:17.167Z,29.27
2018-02-08T22:58:44.698Z,27.57
2018-02-08T23:01:12.164Z,26.70
2018-02-08T23:03:40.460Z,25.50
2018-02-08T23:06:08.027Z,27.80
2018-02-08T23:08:35.560Z,29.43
2018-02-08T23:11:03.803Z,28.80
2018-02-08T23:13:31.335Z,25.03
2018-02-08T23:15:58.813Z,27.50
2018-02-08T23:18:26.344Z,25.07
2018-02-08T23:20:53.817Z,24.80
2018-02-08T23:23:21.351Z,25.13
2018-02-08T23:25:48.863Z,25.27
2018-02-08T23:28:16.371Z,25.13
2018-02-08T23:30:44.374Z,22.90
2018-02-08T23:33:11.838Z,23.63
2018-02-08T23:35:39.330Z,24.50
2018-02-08T23:38:07.583Z,21.90
2018-02-08T23:40:35.429Z,22.67
2018-02-08T23:43:02.903Z,23.73
2018-02-08T23:45:30.374Z,23.47
2018-02-08T23:47:58.646Z,22.13
2018-02-08T23:50:26.922Z,23.73
2018-02-08T23:52:55.202Z,22.87
2018-02-08T23:55:23.441Z,22.40
2018-02-08T23:57:51.614Z,24.63
